sensor_id;sensor_type;location;lat;lon;timestamp;pressure;altitude;pressure_sealevel;temperature;humidity
60479;BME280;46321;48.398;11.754;2023-11-19T00:00:05;96716.16;;;4.61;88.16
60479;BME280;46321;48.398;11.754;2023-11-19T00:02:36;96708.06;;;4.74;87.37
60479;BME280;46321;48.398;11.754;2023-11-19T00:05:01;96695.50;;;4.78;86.95
60479;BME280;46321;48.398;11.754;2023-11-19T00:07:26;96699.00;;;4.88;86.92
60479;BME280;46321;48.398;11.754;2023-11-19T00:09:51;96691.91;;;4.79;87.06
60479;BME280;46321;48.398;11.754;2023-11-19T00:12:17;96686.81;;;4.87;86.71
60479;BME280;46321;48.398;11.754;2023-11-19T00:14:43;96671.53;;;4.92;86.58
60479;BME280;46321;48.398;11.754;2023-11-19T00:17:09;96643.44;;;4.63;87.10
60479;BME280;46321;48.398;11.754;2023-11-19T00:19:34;96656.59;;;4.93;86.51
60479;BME280;46321;48.398;11.754;2023-11-19T00:22:00;96663.78;;;5.01;86.38
60479;BME280;46321;48.398;11.754;2023-11-19T00:24:29;96646.53;;;4.88;86.29
60479;BME280;46321;48.398;11.754;2023-11-19T00:26:55;96660.16;;;4.72;87.69
60479;BME280;46321;48.398;11.754;2023-11-19T00:29:21;96652.88;;;4.86;87.76
60479;BME280;46321;48.398;11.754;2023-11-19T00:31:47;96649.16;;;4.88;87.38
60479;BME280;46321;48.398;11.754;2023-11-19T00:34:12;96648.88;;;5.01;87.20
60479;BME280;46321;48.398;11.754;2023-11-19T00:36:38;96649.16;;;4.88;87.37
60479;BME280;46321;48.398;11.754;2023-11-19T00:39:03;96634.09;;;4.90;87.22
60479;BME280;46321;48.398;11.754;2023-11-19T00:41:30;96650.97;;;5.08;86.71
60479;BME280;46321;48.398;11.754;2023-11-19T00:43:56;96645.53;;;4.89;87.43
60479;BME280;46321;48.398;11.754;2023-11-19T00:46:21;96648.19;;;4.99;87.18
60479;BME280;46321;48.398;11.754;2023-11-19T00:48:46;96625.41;;;4.90;87.00
60479;BME280;46321;48.398;11.754;2023-11-19T00:51:12;96634.09;;;5.00;87.32
60479;BME280;46321;48.398;11.754;2023-11-19T00:53:38;96629.56;;;5.12;86.52
60479;BME280;46321;48.398;11.754;2023-11-19T00:56:03;96627.31;;;4.98;87.26
60479;BME280;46321;48.398;11.754;2023-11-19T00:58:29;96625.00;;;4.95;87.30
60479;BME280;46321;48.398;11.754;2023-11-19T01:00:54;96616.31;;;5.04;87.30
60479;BME280;46321;48.398;11.754;2023-11-19T01:03:19;96607.59;;;5.03;87.28
60479;BME280;46321;48.398;11.754;2023-11-19T01:05:45;96622.38;;;5.24;86.45
60479;BME280;46321;48.398;11.754;2023-11-19T01:08:12;96609.91;;;4.87;88.19
60479;BME280;46321;48.398;11.754;2023-11-19T01:10:37;96597.38;;;5.00;87.35
60479;BME280;46321;48.398;11.754;2023-11-19T01:13:03;96598.19;;;5.21;87.09
60479;BME280;46321;48.398;11.754;2023-11-19T01:15:31;96605.94;;;5.22;86.92
60479;BME280;46321;48.398;11.754;2023-11-19T01:17:56;96592.00;;;5.12;86.86
60479;BME280;46321;48.398;11.754;2023-11-19T01:20:21;96595.84;;;5.18;86.95
60479;BME280;46321;48.398;11.754;2023-11-19T01:22:47;96594.88;;;5.09;87.47
60479;BME280;46321;48.398;11.754;2023-11-19T01:25:13;96588.53;;;5.11;87.81
60479;BME280;46321;48.398;11.754;2023-11-19T01:27:39;96586.31;;;5.26;87.20
60479;BME280;46321;48.398;11.754;2023-11-19T01:30:04;96589.19;;;5.33;86.96
60479;BME280;46321;48.398;11.754;2023-11-19T01:32:31;96582.56;;;5.29;87.09
60479;BME280;46321;48.398;11.754;2023-11-19T01:34:56;96579.56;;;5.04;88.34
60479;BME280;46321;48.398;11.754;2023-11-19T01:37:22;96562.59;;;5.08;87.95
60479;BME280;46321;48.398;11.754;2023-11-19T01:39:47;96576.50;;;5.09;88.91
60479;BME280;46321;48.398;11.754;2023-11-19T01:42:12;96582.19;;;5.14;88.89
60479;BME280;46321;48.398;11.754;2023-11-19T01:44:38;96577.63;;;5.06;88.99
60479;BME280;46321;48.398;11.754;2023-11-19T01:47:03;96570.84;;;5.13;89.01
60479;BME280;46321;48.398;11.754;2023-11-19T01:49:30;96559.94;;;5.18;88.55
60479;BME280;46321;48.398;11.754;2023-11-19T01:51:57;96550.72;;;5.04;88.78
60479;BME280;46321;48.398;11.754;2023-11-19T01:54:23;96547.38;;;5.22;88.67
60479;BME280;46321;48.398;11.754;2023-11-19T01:56:48;96538.81;;;5.20;88.48
60479;BME280;46321;48.398;11.754;2023-11-19T01:59:14;96549.97;;;5.32;88.59
60479;BME280;46321;48.398;11.754;2023-11-19T02:01:40;96552.19;;;5.36;88.42
60479;BME280;46321;48.398;11.754;2023-11-19T02:04:07;96542.94;;;5.32;88.29
60479;BME280;46321;48.398;11.754;2023-11-19T02:06:34;96552.19;;;5.46;88.27
60479;BME280;46321;48.398;11.754;2023-11-19T02:09:01;96542.38;;;5.38;88.42
60479;BME280;46321;48.398;11.754;2023-11-19T02:11:27;96539.44;;;5.52;88.25
60479;BME280;46321;48.398;11.754;2023-11-19T02:13:55;96515.59;;;5.25;88.56
60479;BME280;46321;48.398;11.754;2023-11-19T02:16:21;96518.09;;;5.17;89.66
60479;BME280;46321;48.398;11.754;2023-11-19T02:18:46;96499.31;;;5.21;89.82
60479;BME280;46321;48.398;11.754;2023-11-19T02:21:13;96515.41;;;5.46;89.31
60479;BME280;46321;48.398;11.754;2023-11-19T02:23:40;96505.03;;;5.55;89.04
60479;BME280;46321;48.398;11.754;2023-11-19T02:28:52;96500.78;;;5.44;88.99
60479;BME280;46321;48.398;11.754;2023-11-19T02:31:17;96505.88;;;5.55;89.40
60479;BME280;46321;48.398;11.754;2023-11-19T02:33:44;96499.03;;;5.63;88.68
60479;BME280;46321;48.398;11.754;2023-11-19T02:36:09;96491.41;;;5.69;88.62
60479;BME280;46321;48.398;11.754;2023-11-19T02:38:35;96480.91;;;5.31;89.96
60479;BME280;46321;48.398;11.754;2023-11-19T02:41:04;96492.69;;;5.65;89.50
60479;BME280;46321;48.398;11.754;2023-11-19T02:43:34;96486.84;;;5.71;89.11
60479;BME280;46321;48.398;11.754;2023-11-19T02:46:03;96483.50;;;5.79;88.86
60479;BME280;46321;48.398;11.754;2023-11-19T02:48:33;96475.63;;;5.79;88.81
60479;BME280;46321;48.398;11.754;2023-11-19T02:50:58;96477.50;;;5.87;88.83
60479;BME280;46321;48.398;11.754;2023-11-19T02:53:24;96470.63;;;5.86;88.56
60479;BME280;46321;48.398;11.754;2023-11-19T02:55:50;96472.50;;;5.94;88.51
60479;BME280;46321;48.398;11.754;2023-11-19T02:58:16;96464.63;;;5.94;88.57
60479;BME280;46321;48.398;11.754;2023-11-19T03:00:45;96464.50;;;5.95;88.32
60479;BME280;46321;48.398;11.754;2023-11-19T03:03:19;96455.19;;;6.01;88.27
60479;BME280;46321;48.398;11.754;2023-11-19T03:05:51;96449.41;;;5.98;88.42
60479;BME280;46321;48.398;11.754;2023-11-19T03:08:16;96456.97;;;6.01;88.66
60479;BME280;46321;48.398;11.754;2023-11-19T03:10:42;96446.47;;;6.11;88.33
60479;BME280;46321;48.398;11.754;2023-11-19T03:13:11;96440.75;;;6.15;88.21
60479;BME280;46321;48.398;11.754;2023-11-19T03:15:38;96438.13;;;6.15;88.12
60479;BME280;46321;48.398;11.754;2023-11-19T03:18:03;96440.53;;;6.09;88.30
60479;BME280;46321;48.398;11.754;2023-11-19T03:20:28;96459.16;;;6.15;88.27
60479;BME280;46321;48.398;11.754;2023-11-19T03:22:55;96455.09;;;6.21;88.01
60479;BME280;46321;48.398;11.754;2023-11-19T03:25:20;96443.38;;;6.15;88.00
60479;BME280;46321;48.398;11.754;2023-11-19T03:27:46;96434.81;;;6.13;88.19
60479;BME280;46321;48.398;11.754;2023-11-19T03:30:11;96446.25;;;6.22;88.06
60479;BME280;46321;48.398;11.754;2023-11-19T03:32:37;96425.66;;;6.17;88.42
60479;BME280;46321;48.398;11.754;2023-11-19T03:35:04;96444.66;;;6.11;88.79
60479;BME280;46321;48.398;11.754;2023-11-19T03:37:32;96437.13;;;6.16;88.54
60479;BME280;46321;48.398;11.754;2023-11-19T03:39:57;96440.75;;;6.15;88.84
60479;BME280;46321;48.398;11.754;2023-11-19T03:42:26;96440.31;;;6.20;88.80
60479;BME280;46321;48.398;11.754;2023-11-19T03:44:52;96447.59;;;6.26;88.90
60479;BME280;46321;48.398;11.754;2023-11-19T03:47:18;96444.81;;;6.28;88.78
60479;BME280;46321;48.398;11.754;2023-11-19T03:49:47;96441.06;;;6.30;88.57
60479;BME280;46321;48.398;11.754;2023-11-19T03:52:13;96439.50;;;6.38;88.76
60479;BME280;46321;48.398;11.754;2023-11-19T03:54:39;96442.13;;;6.38;88.41
60479;BME280;46321;48.398;11.754;2023-11-19T03:57:04;96439.84;;;6.43;88.45
60479;BME280;46321;48.398;11.754;2023-11-19T03:59:30;96436.88;;;6.38;88.77
60479;BME280;46321;48.398;11.754;2023-11-19T04:01:55;96430.16;;;6.44;88.65
60479;BME280;46321;48.398;11.754;2023-11-19T04:04:22;96415.97;;;6.36;88.58
60479;BME280;46321;48.398;11.754;2023-11-19T04:06:47;96428.09;;;6.47;88.60
60479;BME280;46321;48.398;11.754;2023-11-19T04:09:12;96426.72;;;6.43;88.22
60479;BME280;46321;48.398;11.754;2023-11-19T04:11:37;96429.56;;;6.50;88.80
60479;BME280;46321;48.398;11.754;2023-11-19T04:14:03;96438.28;;;6.50;88.70
60479;BME280;46321;48.398;11.754;2023-11-19T04:16:28;96422.00;;;6.47;88.67
60479;BME280;46321;48.398;11.754;2023-11-19T04:18:56;96431.63;;;6.56;88.89
60479;BME280;46321;48.398;11.754;2023-11-19T04:21:22;96418.06;;;6.51;88.74
60479;BME280;46321;48.398;11.754;2023-11-19T04:23:48;96434.09;;;6.58;88.94
60479;BME280;46321;48.398;11.754;2023-11-19T04:26:13;96426.03;;;6.59;88.97
60479;BME280;46321;48.398;11.754;2023-11-19T04:28:39;96428.38;;;6.62;89.10
60479;BME280;46321;48.398;11.754;2023-11-19T04:31:04;96419.19;;;6.67;89.07
60479;BME280;46321;48.398;11.754;2023-11-19T04:33:31;96432.56;;;6.73;89.12
60479;BME280;46321;48.398;11.754;2023-11-19T04:35:56;96420.25;;;6.74;89.24
60479;BME280;46321;48.398;11.754;2023-11-19T04:38:21;96412.66;;;6.71;89.59
60479;BME280;46321;48.398;11.754;2023-11-19T04:40:48;96418.75;;;6.71;89.77
60479;BME280;46321;48.398;11.754;2023-11-19T04:43:13;96418.50;;;6.83;89.70
60479;BME280;46321;48.398;11.754;2023-11-19T04:45:38;96420.50;;;6.89;90.07
60479;BME280;46321;48.398;11.754;2023-11-19T04:48:05;96424.78;;;6.90;90.78
60479;BME280;46321;48.398;11.754;2023-11-19T04:50:30;96428.84;;;7.03;90.90
60479;BME280;46321;48.398;11.754;2023-11-19T04:52:56;96414.38;;;7.07;91.58
60479;BME280;46321;48.398;11.754;2023-11-19T04:55:21;96429.91;;;7.18;91.90
60479;BME280;46321;48.398;11.754;2023-11-19T04:57:46;96429.97;;;7.27;93.50
60479;BME280;46321;48.398;11.754;2023-11-19T05:00:13;96431.66;;;7.36;93.54
60479;BME280;46321;48.398;11.754;2023-11-19T05:02:38;96431.41;;;7.48;93.86
60479;BME280;46321;48.398;11.754;2023-11-19T05:05:04;96428.97;;;7.54;93.53
60479;BME280;46321;48.398;11.754;2023-11-19T05:07:30;96423.34;;;7.58;93.88
60479;BME280;46321;48.398;11.754;2023-11-19T05:09:55;96413.19;;;7.63;94.08
60479;BME280;46321;48.398;11.754;2023-11-19T05:12:20;96429.53;;;7.75;94.60
60479;BME280;46321;48.398;11.754;2023-11-19T05:14:46;96425.13;;;7.84;94.78
60479;BME280;46321;48.398;11.754;2023-11-19T05:17:15;96419.88;;;7.92;95.22
60479;BME280;46321;48.398;11.754;2023-11-19T05:19:40;96427.78;;;7.92;95.78
60479;BME280;46321;48.398;11.754;2023-11-19T05:22:05;96424.50;;;7.98;95.57
60479;BME280;46321;48.398;11.754;2023-11-19T05:24:32;96399.16;;;7.97;95.58
60479;BME280;46321;48.398;11.754;2023-11-19T05:26:58;96408.69;;;8.07;95.52
60479;BME280;46321;48.398;11.754;2023-11-19T05:29:23;96409.72;;;8.14;95.31
60479;BME280;46321;48.398;11.754;2023-11-19T05:31:49;96394.38;;;8.09;95.33
60479;BME280;46321;48.398;11.754;2023-11-19T05:34:14;96400.84;;;8.15;95.27
60479;BME280;46321;48.398;11.754;2023-11-19T05:36:40;96396.69;;;8.12;95.09
60479;BME280;46321;48.398;11.754;2023-11-19T05:39:05;96394.91;;;8.13;95.43
60479;BME280;46321;48.398;11.754;2023-11-19T05:41:30;96419.66;;;8.29;95.86
60479;BME280;46321;48.398;11.754;2023-11-19T05:43:56;96417.50;;;8.32;95.31
60479;BME280;46321;48.398;11.754;2023-11-19T05:46:21;96421.63;;;8.43;95.23
60479;BME280;46321;48.398;11.754;2023-11-19T05:48:47;96418.31;;;8.41;95.37
60479;BME280;46321;48.398;11.754;2023-11-19T05:51:12;96418.00;;;8.44;95.32
60479;BME280;46321;48.398;11.754;2023-11-19T05:53:40;96418.50;;;8.48;95.36
60479;BME280;46321;48.398;11.754;2023-11-19T05:56:05;96401.66;;;8.41;95.08
60479;BME280;46321;48.398;11.754;2023-11-19T05:58:32;96408.59;;;8.33;95.22
60479;BME280;46321;48.398;11.754;2023-11-19T06:00:58;96408.44;;;8.52;95.30
60479;BME280;46321;48.398;11.754;2023-11-19T06:03:26;96421.63;;;8.52;95.14
60479;BME280;46321;48.398;11.754;2023-11-19T06:05:52;96412.56;;;8.54;95.45
60479;BME280;46321;48.398;11.754;2023-11-19T06:08:19;96408.16;;;8.63;95.46
60479;BME280;46321;48.398;11.754;2023-11-19T06:10:46;96392.94;;;8.48;95.53
60479;BME280;46321;48.398;11.754;2023-11-19T06:13:12;96398.09;;;8.67;95.37
60479;BME280;46321;48.398;11.754;2023-11-19T06:15:41;96412.94;;;8.68;95.06
60479;BME280;46321;48.398;11.754;2023-11-19T06:18:07;96386.06;;;8.64;95.16
60479;BME280;46321;48.398;11.754;2023-11-19T06:20:33;96410.78;;;8.80;94.62
60479;BME280;46321;48.398;11.754;2023-11-19T06:22:59;96410.28;;;8.68;95.13
60479;BME280;46321;48.398;11.754;2023-11-19T06:25:24;96409.63;;;8.66;95.22
60479;BME280;46321;48.398;11.754;2023-11-19T06:27:50;96404.53;;;8.73;95.42
60479;BME280;46321;48.398;11.754;2023-11-19T06:30:16;96416.38;;;8.85;94.85
60479;BME280;46321;48.398;11.754;2023-11-19T06:32:41;96418.38;;;8.91;94.67
60479;BME280;46321;48.398;11.754;2023-11-19T06:35:07;96416.22;;;8.95;94.42
60479;BME280;46321;48.398;11.754;2023-11-19T06:37:33;96416.22;;;8.95;94.29
60479;BME280;46321;48.398;11.754;2023-11-19T06:39:58;96414.88;;;8.99;94.16
60479;BME280;46321;48.398;11.754;2023-11-19T06:42:24;96415.38;;;9.03;93.94
60479;BME280;46321;48.398;11.754;2023-11-19T06:44:49;96417.84;;;9.13;93.42
60479;BME280;46321;48.398;11.754;2023-11-19T06:47:14;96427.44;;;8.97;94.79
60479;BME280;46321;48.398;11.754;2023-11-19T06:49:40;96420.66;;;9.03;94.12
60479;BME280;46321;48.398;11.754;2023-11-19T06:52:05;96416.72;;;9.07;94.10
60479;BME280;46321;48.398;11.754;2023-11-19T06:54:31;96427.56;;;9.21;93.92
60479;BME280;46321;48.398;11.754;2023-11-19T06:56:56;96429.53;;;9.19;94.00
60479;BME280;46321;48.398;11.754;2023-11-19T06:59:23;96426.06;;;9.26;93.90
60479;BME280;46321;48.398;11.754;2023-11-19T07:01:48;96430.69;;;9.24;94.28
60479;BME280;46321;48.398;11.754;2023-11-19T07:04:14;96424.91;;;9.29;93.87
60479;BME280;46321;48.398;11.754;2023-11-19T07:06:39;96433.84;;;9.20;94.56
60479;BME280;46321;48.398;11.754;2023-11-19T07:09:08;96441.25;;;9.33;94.16
60479;BME280;46321;48.398;11.754;2023-11-19T07:11:40;96420.97;;;9.25;94.33
60479;BME280;46321;48.398;11.754;2023-11-19T07:14:09;96434.97;;;9.34;94.22
60479;BME280;46321;48.398;11.754;2023-11-19T07:16:35;96440.75;;;9.29;94.57
60479;BME280;46321;48.398;11.754;2023-11-19T07:19:03;96444.91;;;9.32;95.07
60479;BME280;46321;48.398;11.754;2023-11-19T07:21:28;96439.25;;;9.35;94.97
60479;BME280;46321;48.398;11.754;2023-11-19T07:23:55;96439.09;;;9.45;94.29
60479;BME280;46321;48.398;11.754;2023-11-19T07:26:21;96444.19;;;9.46;94.64
60479;BME280;46321;48.398;11.754;2023-11-19T07:28:47;96434.91;;;9.50;94.42
60479;BME280;46321;48.398;11.754;2023-11-19T07:31:14;96436.22;;;9.55;94.08
60479;BME280;46321;48.398;11.754;2023-11-19T07:33:40;96453.38;;;9.59;94.18
60479;BME280;46321;48.398;11.754;2023-11-19T07:36:08;96449.59;;;9.70;93.48
60479;BME280;46321;48.398;11.754;2023-11-19T07:38:34;96447.13;;;9.60;93.81
60479;BME280;46321;48.398;11.754;2023-11-19T07:40:59;96462.94;;;9.68;93.56
60479;BME280;46321;48.398;11.754;2023-11-19T07:43:24;96459.78;;;9.73;93.52
60479;BME280;46321;48.398;11.754;2023-11-19T07:45:50;96446.78;;;9.63;93.70
60479;BME280;46321;48.398;11.754;2023-11-19T07:48:15;96459.28;;;9.78;93.36
60479;BME280;46321;48.398;11.754;2023-11-19T07:50:41;96455.53;;;9.72;93.31
60479;BME280;46321;48.398;11.754;2023-11-19T07:53:07;96469.16;;;9.84;93.52
60479;BME280;46321;48.398;11.754;2023-11-19T07:55:33;96464.25;;;9.81;93.37
60479;BME280;46321;48.398;11.754;2023-11-19T07:57:58;96468.31;;;9.92;93.20
60479;BME280;46321;48.398;11.754;2023-11-19T08:00:24;96466.66;;;9.91;93.14
60479;BME280;46321;48.398;11.754;2023-11-19T08:02:49;96458.72;;;9.91;93.19
60479;BME280;46321;48.398;11.754;2023-11-19T08:05:14;96447.03;;;9.85;92.92
60479;BME280;46321;48.398;11.754;2023-11-19T08:07:39;96466.34;;;9.94;93.39
60479;BME280;46321;48.398;11.754;2023-11-19T08:10:05;96470.09;;;10.08;92.77
60479;BME280;46321;48.398;11.754;2023-11-19T08:12:34;96469.72;;;10.11;92.48
60479;BME280;46321;48.398;11.754;2023-11-19T08:15:00;96465.25;;;10.12;92.54
60479;BME280;46321;48.398;11.754;2023-11-19T08:17:26;96463.59;;;10.19;92.37
60479;BME280;46321;48.398;11.754;2023-11-19T08:19:51;96452.81;;;10.21;92.22
60479;BME280;46321;48.398;11.754;2023-11-19T08:22:18;96472.72;;;10.40;92.42
60479;BME280;46321;48.398;11.754;2023-11-19T08:24:43;96455.97;;;10.48;92.01
60479;BME280;46321;48.398;11.754;2023-11-19T08:27:08;96449.34;;;10.52;91.28
60479;BME280;46321;48.398;11.754;2023-11-19T08:29:34;96448.06;;;10.71;90.38
60479;BME280;46321;48.398;11.754;2023-11-19T08:32:03;96442.16;;;10.84;90.21
60479;BME280;46321;48.398;11.754;2023-11-19T08:34:29;96456.81;;;10.95;89.36
60479;BME280;46321;48.398;11.754;2023-11-19T08:36:54;96467.13;;;10.90;89.66
60479;BME280;46321;48.398;11.754;2023-11-19T08:39:20;96461.63;;;10.92;89.61
60479;BME280;46321;48.398;11.754;2023-11-19T08:41:49;96459.94;;;10.99;89.02
60479;BME280;46321;48.398;11.754;2023-11-19T08:44:15;96454.63;;;10.99;89.10
60479;BME280;46321;48.398;11.754;2023-11-19T08:46:50;96458.09;;;10.99;88.93
60479;BME280;46321;48.398;11.754;2023-11-19T08:49:16;96469.69;;;10.98;89.18
60479;BME280;46321;48.398;11.754;2023-11-19T08:51:41;96468.69;;;10.99;88.76
60479;BME280;46321;48.398;11.754;2023-11-19T08:54:06;96467.59;;;11.09;88.62
60479;BME280;46321;48.398;11.754;2023-11-19T08:56:32;96472.47;;;11.20;88.33
60479;BME280;46321;48.398;11.754;2023-11-19T08:58:59;96472.13;;;11.24;88.09
60479;BME280;46321;48.398;11.754;2023-11-19T09:01:25;96466.00;;;11.23;87.94
60479;BME280;46321;48.398;11.754;2023-11-19T09:03:50;96476.06;;;11.28;87.86
60479;BME280;46321;48.398;11.754;2023-11-19T09:06:15;96471.94;;;11.25;88.16
60479;BME280;46321;48.398;11.754;2023-11-19T09:08:42;96480.09;;;11.39;87.27
60479;BME280;46321;48.398;11.754;2023-11-19T09:11:10;96478.59;;;11.21;87.89
60479;BME280;46321;48.398;11.754;2023-11-19T09:13:35;96482.56;;;11.40;87.57
60479;BME280;46321;48.398;11.754;2023-11-19T09:16:01;96477.56;;;11.45;87.36
60479;BME280;46321;48.398;11.754;2023-11-19T09:18:30;96467.75;;;11.31;87.94
60479;BME280;46321;48.398;11.754;2023-11-19T09:20:55;96465.84;;;11.40;87.48
60479;BME280;46321;48.398;11.754;2023-11-19T09:23:21;96480.50;;;11.51;86.89
60479;BME280;46321;48.398;11.754;2023-11-19T09:25:50;96464.09;;;11.32;87.67
60479;BME280;46321;48.398;11.754;2023-11-19T09:28:15;96487.72;;;11.57;86.87
60479;BME280;46321;48.398;11.754;2023-11-19T09:30:41;96488.00;;;11.62;86.87
60479;BME280;46321;48.398;11.754;2023-11-19T09:33:06;96460.84;;;11.60;87.30
60479;BME280;46321;48.398;11.754;2023-11-19T09:35:32;96471.16;;;11.85;86.27
60479;BME280;46321;48.398;11.754;2023-11-19T09:37:57;96465.56;;;12.10;84.68
60479;BME280;46321;48.398;11.754;2023-11-19T09:40:24;96451.84;;;12.22;84.32
60479;BME280;46321;48.398;11.754;2023-11-19T09:42:49;96451.31;;;14.35;75.60
60479;BME280;46321;48.398;11.754;2023-11-19T09:45:17;96453.31;;;15.16;71.66
60479;BME280;46321;48.398;11.754;2023-11-19T09:47:45;96448.97;;;15.35;69.54
60479;BME280;46321;48.398;11.754;2023-11-19T09:50:15;96474.47;;;14.41;73.04
60479;BME280;46321;48.398;11.754;2023-11-19T09:52:43;96471.00;;;13.91;75.14
60479;BME280;46321;48.398;11.754;2023-11-19T09:55:08;96465.78;;;13.40;76.58
60479;BME280;46321;48.398;11.754;2023-11-19T09:57:35;96461.72;;;13.16;78.08
60479;BME280;46321;48.398;11.754;2023-11-19T10:00:04;96442.59;;;12.77;79.53
60479;BME280;46321;48.398;11.754;2023-11-19T10:02:31;96470.84;;;12.85;80.64
60479;BME280;46321;48.398;11.754;2023-11-19T10:04:59;96466.03;;;12.73;81.42
60479;BME280;46321;48.398;11.754;2023-11-19T10:07:25;96465.41;;;12.71;81.01
60479;BME280;46321;48.398;11.754;2023-11-19T10:09:51;96454.28;;;12.82;80.92
60479;BME280;46321;48.398;11.754;2023-11-19T10:12:16;96461.34;;;12.97;80.70
60479;BME280;46321;48.398;11.754;2023-11-19T10:14:42;96451.09;;;17.10;66.85
60479;BME280;46321;48.398;11.754;2023-11-19T10:17:09;96430.44;;;18.25;60.58
60479;BME280;46321;48.398;11.754;2023-11-19T10:19:34;96425.69;;;19.37;56.53
60479;BME280;46321;48.398;11.754;2023-11-19T10:22:06;96435.38;;;18.40;57.95
60479;BME280;46321;48.398;11.754;2023-11-19T10:24:33;96431.66;;;20.05;54.72
60479;BME280;46321;48.398;11.754;2023-11-19T10:27:02;96428.47;;;19.18;57.16
60479;BME280;46321;48.398;11.754;2023-11-19T10:29:30;96435.41;;;21.43;50.96
60479;BME280;46321;48.398;11.754;2023-11-19T10:31:56;96432.66;;;19.38;55.27
60479;BME280;46321;48.398;11.754;2023-11-19T10:34:26;96420.31;;;19.25;56.33
60479;BME280;46321;48.398;11.754;2023-11-19T10:36:52;96415.66;;;21.55;49.00
60479;BME280;46321;48.398;11.754;2023-11-19T10:39:17;96408.88;;;23.36;45.15
60479;BME280;46321;48.398;11.754;2023-11-19T10:41:43;96417.16;;;20.18;50.79
60479;BME280;46321;48.398;11.754;2023-11-19T10:44:09;96413.06;;;18.59;56.24
60479;BME280;46321;48.398;11.754;2023-11-19T10:46:39;96395.81;;;20.40;51.41
60479;BME280;46321;48.398;11.754;2023-11-19T10:49:06;96396.13;;;20.14;51.75
60479;BME280;46321;48.398;11.754;2023-11-19T10:51:32;96393.47;;;25.17;40.64
60479;BME280;46321;48.398;11.754;2023-11-19T10:54:02;96380.69;;;26.21;37.56
60479;BME280;46321;48.398;11.754;2023-11-19T10:56:31;96380.50;;;23.87;43.41
60479;BME280;46321;48.398;11.754;2023-11-19T10:58:58;96372.47;;;29.35;33.45
60479;BME280;46321;48.398;11.754;2023-11-19T11:01:27;96380.84;;;26.40;37.24
60479;BME280;46321;48.398;11.754;2023-11-19T11:03:59;96362.31;;;29.83;31.71
60479;BME280;46321;48.398;11.754;2023-11-19T11:06:26;96373.34;;;33.27;26.49
60479;BME280;46321;48.398;11.754;2023-11-19T11:08:52;96371.19;;;32.76;26.76
60479;BME280;46321;48.398;11.754;2023-11-19T11:11:19;96387.47;;;26.23;35.29
60479;BME280;46321;48.398;11.754;2023-11-19T11:13:50;96385.41;;;23.90;40.92
60479;BME280;46321;48.398;11.754;2023-11-19T11:16:18;96369.28;;;26.69;36.82
60479;BME280;46321;48.398;11.754;2023-11-19T11:18:45;96372.41;;;21.44;45.76
60479;BME280;46321;48.398;11.754;2023-11-19T11:21:17;96385.66;;;19.48;52.30
60479;BME280;46321;48.398;11.754;2023-11-19T11:23:56;96394.75;;;17.94;56.85
60479;BME280;46321;48.398;11.754;2023-11-19T11:35:19;96370.66;;;16.35;63.45
60479;BME280;46321;48.398;11.754;2023-11-19T11:37:53;96380.56;;;16.28;63.35
60479;BME280;46321;48.398;11.754;2023-11-19T11:40:21;96378.31;;;16.57;63.38
60479;BME280;46321;48.398;11.754;2023-11-19T11:42:48;96361.81;;;16.34;63.79
60479;BME280;46321;48.398;11.754;2023-11-19T11:45:16;96369.84;;;16.60;62.30
60479;BME280;46321;48.398;11.754;2023-11-19T11:50:08;96353.94;;;16.46;63.55
60479;BME280;46321;48.398;11.754;2023-11-19T11:55:34;96368.56;;;16.69;62.82
60479;BME280;46321;48.398;11.754;2023-11-19T11:58:00;96364.75;;;16.84;62.84
60479;BME280;46321;48.398;11.754;2023-11-19T12:00:39;96367.69;;;17.01;62.21
60479;BME280;46321;48.398;11.754;2023-11-19T12:03:06;96358.56;;;17.09;62.20
60479;BME280;46321;48.398;11.754;2023-11-19T12:05:33;96364.53;;;16.86;62.98
60479;BME280;46321;48.398;11.754;2023-11-19T12:08:03;96360.16;;;16.91;62.52
60479;BME280;46321;48.398;11.754;2023-11-19T12:10:32;96375.06;;;17.06;62.83
60479;BME280;46321;48.398;11.754;2023-11-19T12:13:01;96369.81;;;16.92;62.64
60479;BME280;46321;48.398;11.754;2023-11-19T12:15:27;96372.94;;;16.64;63.57
60479;BME280;46321;48.398;11.754;2023-11-19T12:17:54;96374.34;;;15.95;65.47
60479;BME280;46321;48.398;11.754;2023-11-19T12:20:21;96378.50;;;15.84;66.16
60479;BME280;46321;48.398;11.754;2023-11-19T12:22:48;96365.03;;;15.58;66.88
60479;BME280;46321;48.398;11.754;2023-11-19T12:25:15;96361.16;;;15.47;67.56
60479;BME280;46321;48.398;11.754;2023-11-19T12:27:51;96348.72;;;15.80;66.89
60479;BME280;46321;48.398;11.754;2023-11-19T12:30:21;96344.41;;;15.86;66.73
60479;BME280;46321;48.398;11.754;2023-11-19T12:32:48;96342.78;;;16.24;65.95
60479;BME280;46321;48.398;11.754;2023-11-19T12:35:13;96335.75;;;16.30;65.84
60479;BME280;46321;48.398;11.754;2023-11-19T12:37:49;96319.69;;;16.04;65.67
60479;BME280;46321;48.398;11.754;2023-11-19T12:42:41;96318.63;;;16.12;65.72
60479;BME280;46321;48.398;11.754;2023-11-19T12:45:07;96302.66;;;15.98;66.57
60479;BME280;46321;48.398;11.754;2023-11-19T12:47:34;96316.66;;;16.33;65.38
60479;BME280;46321;48.398;11.754;2023-11-19T12:49:59;96314.47;;;16.16;65.42
60479;BME280;46321;48.398;11.754;2023-11-19T12:52:24;96302.03;;;16.03;65.12
60479;BME280;46321;48.398;11.754;2023-11-19T12:54:50;96310.56;;;16.19;64.58
60479;BME280;46321;48.398;11.754;2023-11-19T12:57:16;96304.31;;;15.99;64.41
60479;BME280;46321;48.398;11.754;2023-11-19T12:59:54;96307.63;;;15.95;64.31
60479;BME280;46321;48.398;11.754;2023-11-19T13:02:21;96321.41;;;15.85;64.15
60479;BME280;46321;48.398;11.754;2023-11-19T13:04:46;96315.09;;;15.79;64.75
60479;BME280;46321;48.398;11.754;2023-11-19T13:07:11;96316.69;;;15.87;64.30
60479;BME280;46321;48.398;11.754;2023-11-19T13:09:37;96306.22;;;15.85;64.26
60479;BME280;46321;48.398;11.754;2023-11-19T13:12:13;96316.03;;;15.52;64.92